Aeroporto :
LOGIN :

Iscrizione | Disclaimer

   EN    FR    IT 

 










Sommario :    VFR   VFR Marginale   IFR   IFR Intensivo   IFR Molto Intensivo
Visibilità : 
Base nubi : 
>= 8 km
>= 3000ft
5 / 8 km
1000 / 3000 ft
1500m / 5 km
500 / 1000 ft
800 / 1500m
200 / 500 ft
< 800m
< 200 ft
Simboli :   Temporali  Nebbia  Neve Forte  Precipitazioni Forti  Vento > 20 kt
SIGMETs :   Varie  Temporali  Ghiacco  Turbolenza  Onda orograficha  Ceneri Vulcaniche






- Altitudine del aeroporto : 604 ft
- Codice IATA : LCJ


EPLL - Lodz

ULTIMO METAR :
  • 041000Z 29009KT 230V340 9999 BKN048 08/M03 Q1025

METARs OBSOLETI :
  • 040930Z 28011KT 260V320 9999 SCT047 09/M04 Q1025
  • 040900Z 28008KT 240V320 9999 SCT046 08/M04 Q1024
  • 040830Z 22004KT 130V270 9999 FEW040 07/M03 Q1024
  • 040800Z VRB02KT CAVOK 08/M03 Q1024
  • 040730Z VRB01KT CAVOK 06/M02 Q1024

TAF TAF EPLL
Valido dal 04 a 06 ore il 05 a 06 ore UTC


040530Z 0406/0506 VRB02KT CAVOK
BECMG 0408/0411 28010KT
PROB40
TEMPO 0409/0413 SCT040TCU
BECMG 0416/0419 VRB02KT



MetMap, La meteo Aeronautica in un colpo d'occhio ! - Copyright ORBIFLY Dicembre 2007 - Disclaimer

ORBIFLY MET'MAP TEAM :

Programmazione e sviluppo : Alexandra Zaïnal
Concezione : Baudouin d'Aumeries
Aiuto per la programmazione : Marc-Olivier Méhu
Supporto tecnico e logistico : Manuel Goepfert
Aiuto per la traduzione : Arnaldo La Scala

Contatto : metmap@orbifly.com




FONTI E CREDITI :

   NOAA